Time;durP1;ratioP1;P1;durP2;ratioP2;P2;SDS_P1;SDS_P2;PMS_P1;PMS_P2;Temp;Humidity;BMP_temperature;BMP_pressure;BME280_temperature;BME280_humidity;BME280_pressure;Samples;Min_cycle;Max_cycle;Signal;HPM_P1;HPM_P2
2022/07/03 00:01:38;;;;;;;1.75;1.63;;;19.70;83.70;;;;;;5053635;28;20025;-79
2022/07/03 00:04:04;;;;;;;2.78;1.98;;;19.70;83.90;;;;;;5071280;28;20474;-81
2022/07/03 00:06:32;;;;;;;1.70;1.50;;;19.70;84.30;;;;;;5070834;28;20039;-83
2022/07/03 00:08:59;;;;;;;2.22;1.65;;;19.70;84.40;;;;;;5086544;28;20029;-81
2022/07/03 00:11:25;;;;;;;1.58;1.48;;;19.60;84.40;;;;;;5053131;28;20063;-79
2022/07/03 00:13:50;;;;;;;4.82;1.70;;;19.60;84.40;;;;;;5071511;28;20025;-82
2022/07/03 00:16:16;;;;;;;2.30;1.50;;;19.60;84.70;;;;;;5070225;28;20349;-82
2022/07/03 00:18:42;;;;;;;2.55;1.92;;;19.60;85.00;;;;;;5053292;28;20100;-79
2022/07/03 00:21:10;;;;;;;2.47;1.67;;;19.50;85.00;;;;;;5052679;28;20025;-81
2022/07/03 00:23:56;;;;;;;4.78;1.45;;;19.50;85.30;;;;;;5071658;28;20033;-81
2022/07/03 00:26:22;;;;;;;4.20;1.40;;;19.50;85.50;;;;;;5070802;28;20410;-80
2022/07/03 00:28:50;;;;;;;1.77;1.50;;;19.50;85.80;;;;;;5053257;28;20031;-80
2022/07/03 00:31:15;;;;;;;3.88;1.67;;;19.40;85.80;;;;;;5070586;28;20024;-80
2022/07/03 00:33:44;;;;;;;2.15;1.25;;;19.40;86.20;;;;;;5053439;28;20086;-79
2022/07/03 00:36:11;;;;;;;2.50;1.50;;;19.40;86.40;;;;;;5069492;28;20107;-81
2022/07/03 00:38:37;;;;;;;1.92;1.45;;;19.30;86.40;;;;;;5052419;28;20028;-83
2022/07/03 00:41:03;;;;;;;2.28;1.42;;;19.30;86.80;;;;;;5052745;28;20106;-81
2022/07/03 00:43:29;;;;;;;1.92;1.50;;;19.30;86.80;;;;;;5052833;28;20020;-81
2022/07/03 00:46:05;;;;;;;1.40;1.10;;;19.20;86.60;;;;;;5052878;28;20039;-78
2022/07/03 00:48:36;;;;;;;2.83;1.13;;;19.20;87.00;;;;;;5070662;28;20497;-78
2022/07/03 00:51:02;;;;;;;1.65;1.38;;;19.20;86.90;;;;;;5052433;28;20024;-81
2022/07/03 00:53:29;;;;;;;2.55;1.45;;;19.10;87.40;;;;;;5052569;28;20093;-84
2022/07/03 00:55:55;;;;;;;1.92;1.65;;;19.10;87.80;;;;;;5069696;28;20028;-81
2022/07/03 00:58:21;;;;;;;3.25;1.50;;;19.10;87.40;;;;;;5069104;28;20032;-78
2022/07/03 01:00:51;;;;;;;3.90;2.03;;;19.00;87.70;;;;;;5070223;28;20038;-80
2022/07/03 01:03:19;;;;;;;1.50;1.10;;;19.00;87.70;;;;;;5070314;28;20454;-78
2022/07/03 01:05:51;;;;;;;2.53;1.60;;;19.00;88.10;;;;;;5067010;28;20028;-78
2022/07/03 01:08:40;;;;;;;4.10;1.45;;;19.00;88.90;;;;;;5052331;28;20368;-79
2022/07/03 01:11:25;;;;;;;2.33;1.52;;;18.90;88.60;;;;;;5051503;28;20474;-80
2022/07/03 01:14:24;;;;;;;2.97;1.52;;;18.90;88.50;;;;;;5051954;28;20438;-79
2022/07/03 01:16:57;;;;;;;2.17;1.50;;;18.90;88.60;;;;;;5069857;28;20132;-80
2022/07/03 01:19:41;;;;;;;2.40;1.52;;;18.90;88.80;;;;;;5052245;28;20024;-79
2022/07/03 01:22:29;;;;;;;2.30;1.88;;;18.90;88.80;;;;;;5070010;28;20385;-80
2022/07/03 01:25:21;;;;;;;3.17;1.48;;;18.90;88.90;;;;;;5069862;28;20031;-80
2022/07/03 01:28:11;;;;;;;4.95;1.50;;;18.80;88.90;;;;;;5050110;28;20025;-85
2022/07/03 01:30:40;;;;;;;1.85;1.75;;;18.80;88.90;;;;;;5065285;28;20116;-80
2022/07/03 01:33:25;;;;;;;2.58;2.38;;;18.80;89.10;;;;;;5049570;28;20381;-81
2022/07/03 01:36:06;;;;;;;2.78;1.60;;;18.80;89.40;;;;;;5042698;28;20086;-82
2022/07/03 01:38:34;;;;;;;3.40;1.70;;;18.70;89.50;;;;;;5048809;28;20033;-83
2022/07/03 01:41:02;;;;;;;2.25;1.77;;;18.70;89.70;;;;;;5083288;28;20496;-81
2022/07/03 01:43:30;;;;;;;2.00;1.45;;;18.70;89.90;;;;;;5070110;28;20029;-81
2022/07/03 01:46:01;;;;;;;2.55;1.50;;;18.70;89.90;;;;;;5051227;28;20036;-80
2022/07/03 01:48:28;;;;;;;3.47;2.00;;;18.60;89.90;;;;;;5072628;28;20070;-81
2022/07/03 01:50:55;;;;;;;2.00;1.58;;;18.60;90.00;;;;;;5055478;28;20089;-81
2022/07/03 01:53:24;;;;;;;4.38;1.98;;;18.60;90.00;;;;;;5073396;28;20033;-81
2022/07/03 01:55:51;;;;;;;7.20;1.48;;;18.60;90.10;;;;;;5072870;28;20039;-80
2022/07/03 01:58:16;;;;;;;1.70;1.60;;;18.60;90.20;;;;;;5073358;28;20182;-83
2022/07/03 02:00:50;;;;;;;2.67;1.75;;;18.60;90.10;;;;;;5055154;28;20507;-83
2022/07/03 02:03:25;;;;;;;2.28;1.60;;;18.60;90.20;;;;;;5073538;28;20025;-81
2022/07/03 02:05:59;;;;;;;1.98;1.77;;;18.60;90.30;;;;;;5088574;28;20474;-80
2022/07/03 02:08:34;;;;;;;2.85;1.90;;;18.60;90.40;;;;;;5072773;28;20079;-83
2022/07/03 02:11:19;;;;;;;2.05;1.50;;;18.60;90.40;;;;;;5072859;28;20025;-81
2022/07/03 02:13:50;;;;;;;4.47;1.65;;;18.50;90.40;;;;;;5073221;28;20020;-81
2022/07/03 02:16:19;;;;;;;2.42;1.83;;;18.50;90.50;;;;;;5072496;28;20036;-80
2022/07/03 02:19:03;;;;;;;2.15;1.55;;;18.50;90.70;;;;;;5055388;28;20025;-80
2022/07/03 02:21:30;;;;;;;1.83;1.60;;;18.40;90.70;;;;;;5073012;28;20032;-79
2022/07/03 02:24:09;;;;;;;2.03;1.58;;;18.40;90.70;;;;;;5072789;28;20086;-81
2022/07/03 02:26:38;;;;;;;5.47;1.98;;;18.40;90.80;;;;;;5054100;28;20039;-82
2022/07/03 02:29:12;;;;;;;3.95;2.00;;;18.30;90.80;;;;;;5054862;28;20119;-82
2022/07/03 02:31:42;;;;;;;2.70;1.80;;;18.30;90.90;;;;;;5054841;28;20074;-83
2022/07/03 02:34:12;;;;;;;5.10;2.22;;;18.30;91.00;;;;;;5054721;28;20148;-81
2022/07/03 02:36:40;;;;;;;2.45;1.80;;;18.30;91.10;;;;;;5053959;28;20064;-82
2022/07/03 02:39:12;;;;;;;6.68;1.77;;;18.20;91.10;;;;;;5072847;28;20029;-81
2022/07/03 02:41:45;;;;;;;;;;;18.20;91.20;;;;;;5055011;28;20040;-82
2022/07/03 02:44:22;;;;;;;1.98;1.77;;;18.20;91.20;;;;;;5072873;28;20405;-80
2022/07/03 02:47:23;;;;;;;2.58;1.70;;;18.20;91.30;;;;;;5071801;28;20044;-83
2022/07/03 02:49:53;;;;;;;3.55;1.98;;;18.20;91.30;;;;;;5088252;28;20565;-79
2022/07/03 02:52:43;;;;;;;2.67;1.80;;;18.10;91.50;;;;;;5054003;28;20036;-81
2022/07/03 02:55:45;;;;;;;2.67;1.73;;;18.10;91.60;;;;;;5060568;28;20401;-79
2022/07/03 02:58:26;;;;;;;2.70;2.10;;;18.10;91.60;;;;;;5072046;28;20104;-81
2022/07/03 03:01:08;;;;;;;2.78;2.03;;;18.10;91.70;;;;;;5072218;28;20469;-80
2022/07/03 03:03:35;;;;;;;2.00;1.80;;;18.10;91.70;;;;;;5070797;28;20147;-81
2022/07/03 03:06:13;;;;;;;4.22;2.15;;;18.00;91.90;;;;;;5066519;28;20094;-79
2022/07/03 03:08:43;;;;;;;2.35;1.85;;;18.00;91.90;;;;;;5072695;28;20052;-83
2022/07/03 03:11:37;;;;;;;2.63;1.80;;;18.00;92.00;;;;;;5054924;28;20063;-81
2022/07/03 03:14:07;;;;;;;2.95;2.17;;;18.00;92.00;;;;;;5056725;28;20024;-81
2022/07/03 03:16:33;;;;;;;3.92;2.17;;;18.00;92.20;;;;;;5072707;28;20490;-83
2022/07/03 03:18:58;;;;;;;1.95;1.75;;;18.00;92.10;;;;;;5054445;28;20028;-79
2022/07/03 03:21:31;;;;;;;6.15;1.85;;;18.00;92.30;;;;;;5072515;28;20064;-80
2022/07/03 03:23:57;;;;;;;2.88;1.80;;;17.90;92.20;;;;;;5054009;28;20123;-81
2022/07/03 03:26:28;;;;;;;3.97;1.92;;;17.90;92.20;;;;;;5071321;28;20051;-78
2022/07/03 03:28:54;;;;;;;2.33;2.13;;;17.90;92.50;;;;;;5054322;28;20036;-79
2022/07/03 03:31:20;;;;;;;2.13;1.92;;;17.90;92.30;;;;;;5053622;28;20032;-79
2022/07/03 03:33:49;;;;;;;2.45;2.17;;;17.90;92.30;;;;;;5071873;28;20029;-81
2022/07/03 03:36:17;;;;;;;3.97;2.20;;;17.90;92.30;;;;;;5071313;28;20078;-80
2022/07/03 03:38:43;;;;;;;2.30;1.80;;;17.90;92.40;;;;;;5071899;28;20024;-77
2022/07/03 03:41:09;;;;;;;3.17;1.70;;;17.90;92.30;;;;;;5053176;28;20402;-82
2022/07/03 03:43:35;;;;;;;2.47;1.90;;;17.90;92.50;;;;;;5071669;28;20029;-81
2022/07/03 03:46:02;;;;;;;2.22;1.75;;;17.90;92.40;;;;;;5071169;28;20035;-82
2022/07/03 03:48:29;;;;;;;2.55;1.60;;;18.00;92.40;;;;;;5053487;28;20034;-81
2022/07/03 03:50:56;;;;;;;4.88;1.92;;;18.00;92.40;;;;;;5071991;28;20462;-79
2022/07/03 03:53:23;;;;;;;2.28;1.92;;;18.00;92.40;;;;;;5053246;28;20037;-79
2022/07/03 03:56:14;;;;;;;2.25;1.88;;;18.00;92.40;;;;;;5070434;28;20037;-79
2022/07/03 03:58:41;;;;;;;2.75;1.65;;;18.00;92.40;;;;;;5053710;28;20035;-80
2022/07/03 04:01:08;;;;;;;3.45;1.70;;;18.00;92.50;;;;;;5070439;28;20025;-81
2022/07/03 04:03:35;;;;;;;2.45;1.98;;;18.00;92.50;;;;;;5053167;28;20436;-83
2022/07/03 04:06:00;;;;;;;4.50;2.03;;;18.00;92.60;;;;;;5052934;28;20055;-81
2022/07/03 04:08:28;;;;;;;2.00;1.80;;;18.00;92.70;;;;;;5070624;28;20503;-81
2022/07/03 04:10:54;;;;;;;2.60;1.95;;;18.00;92.80;;;;;;5086170;28;20032;-81
2022/07/03 04:13:20;;;;;;;2.40;2.03;;;18.00;92.60;;;;;;5071266;28;20037;-79
2022/07/03 04:15:46;;;;;;;2.40;2.10;;;18.00;92.70;;;;;;5052434;28;20078;-80
2022/07/03 04:18:12;;;;;;;3.72;2.20;;;18.00;92.80;;;;;;5052576;28;20028;-81
2022/07/03 04:20:38;;;;;;;3.08;1.90;;;18.00;92.80;;;;;;5053126;28;20051;-83
2022/07/03 04:23:04;;;;;;;2.38;1.77;;;18.00;92.90;;;;;;5052924;28;20032;-80
2022/07/03 04:25:29;;;;;;;2.75;2.10;;;18.00;93.00;;;;;;5069790;28;20103;-80
2022/07/03 04:27:55;;;;;;;4.05;2.03;;;18.00;93.00;;;;;;5070864;28;20029;-79
2022/07/03 04:30:20;;;;;;;3.40;2.20;;;18.00;93.10;;;;;;5070600;28;20029;-78
2022/07/03 04:32:47;;;;;;;2.50;2.30;;;18.00;93.10;;;;;;5052819;28;20032;-78
2022/07/03 04:35:13;;;;;;;2.58;1.98;;;18.10;93.10;;;;;;5052246;28;20028;-79
2022/07/03 04:37:39;;;;;;;2.58;1.63;;;18.10;93.20;;;;;;5052370;28;20082;-80
2022/07/03 04:40:05;;;;;;;3.75;1.80;;;18.10;93.10;;;;;;5052688;28;20028;-79
2022/07/03 04:42:31;;;;;;;2.80;1.90;;;18.20;93.10;;;;;;5086291;28;20040;-81
2022/07/03 04:44:56;;;;;;;2.65;2.20;;;18.20;93.10;;;;;;5070780;28;20031;-78
2022/07/03 04:47:21;;;;;;;4.03;2.42;;;18.20;93.00;;;;;;5069862;28;20037;-81
2022/07/03 04:49:47;;;;;;;2.53;2.00;;;18.30;93.00;;;;;;5053044;28;20748;-80
2022/07/03 04:52:13;;;;;;;5.50;2.05;;;18.30;92.90;;;;;;5070344;28;20067;-78
2022/07/03 04:54:38;;;;;;;2.85;2.30;;;18.30;93.20;;;;;;5051897;28;20028;-81
2022/07/03 04:57:04;;;;;;;3.20;2.00;;;18.30;92.80;;;;;;5051877;28;20032;-82
2022/07/03 04:59:30;;;;;;;3.60;1.73;;;18.40;92.50;;;;;;5052452;28;20390;-82
2022/07/03 05:01:55;;;;;;;3.15;2.45;;;18.40;92.80;;;;;;5052470;28;20031;-80
2022/07/03 05:04:21;;;;;;;2.33;1.73;;;18.40;92.80;;;;;;5064891;28;20028;-79
2022/07/03 05:06:46;;;;;;;1.88;1.75;;;18.50;92.70;;;;;;5069971;28;20032;-82
2022/07/03 05:09:12;;;;;;;2.17;1.98;;;18.50;92.70;;;;;;5070098;28;20077;-81
2022/07/03 05:11:38;;;;;;;5.55;1.80;;;18.50;92.70;;;;;;5051488;28;20120;-81
2022/07/03 05:14:04;;;;;;;3.70;2.60;;;18.60;92.60;;;;;;5070010;28;20090;-80
2022/07/03 05:16:30;;;;;;;2.08;1.65;;;18.70;92.40;;;;;;5051569;28;20369;-83
2022/07/03 05:18:56;;;;;;;2.22;1.70;;;18.70;92.70;;;;;;5052342;28;20029;-83
2022/07/03 05:21:22;;;;;;;2.05;1.77;;;18.80;92.50;;;;;;5051695;28;20032;-81
2022/07/03 05:23:47;;;;;;;1.98;1.77;;;18.80;92.60;;;;;;5052386;28;20477;-78
2022/07/03 05:26:13;;;;;;;2.13;1.77;;;18.80;92.50;;;;;;5069454;28;20115;-79
2022/07/03 05:28:38;;;;;;;2.10;1.67;;;18.80;92.60;;;;;;5052228;28;20151;-82
2022/07/03 05:31:04;;;;;;;5.93;2.38;;;18.80;92.40;;;;;;5069475;28;20040;-80
2022/07/03 05:33:29;;;;;;;2.85;1.67;;;18.90;92.20;;;;;;5052143;28;20037;-80
2022/07/03 05:35:56;;;;;;;2.38;1.95;;;18.90;92.30;;;;;;5051617;28;20033;-80
2022/07/03 05:41:06;;;;;;;2.85;1.60;;;19.00;92.10;;;;;;5069737;28;20102;-81
2022/07/03 05:43:31;;;;;;;2.15;1.95;;;19.10;92.10;;;;;;5070057;28;20033;-81
2022/07/03 05:45:57;;;;;;;4.75;2.38;;;19.10;92.20;;;;;;5069624;28;20032;-81
2022/07/03 05:48:22;;;;;;;3.83;2.08;;;19.20;92.20;;;;;;5051517;28;20130;-80
2022/07/03 05:50:48;;;;;;;2.70;1.95;;;19.20;92.10;;;;;;5069970;28;20033;-83
2022/07/03 05:53:13;;;;;;;3.83;1.98;;;19.30;92.40;;;;;;5069678;28;20040;-78
2022/07/03 05:55:39;;;;;;;2.80;2.40;;;19.30;92.30;;;;;;5069524;28;20040;-80
2022/07/03 05:58:04;;;;;;;3.25;1.90;;;19.40;92.10;;;;;;5051961;28;20056;-81
2022/07/03 06:00:30;;;;;;;2.40;1.83;;;19.50;92.20;;;;;;5069592;28;20083;-79
2022/07/03 06:02:55;;;;;;;2.15;1.83;;;19.60;92.10;;;;;;5069822;28;20025;-80
2022/07/03 06:05:21;;;;;;;2.63;1.70;;;19.60;91.90;;;;;;5069280;28;20025;-82
2022/07/03 06:07:46;;;;;;;2.67;1.92;;;19.70;91.70;;;;;;5068583;28;20031;-82
2022/07/03 06:10:12;;;;;;;3.17;1.80;;;19.80;91.80;;;;;;5051461;28;20036;-81
2022/07/03 06:12:37;;;;;;;2.58;2.20;;;19.90;91.40;;;;;;5051595;28;20047;-81
2022/07/03 06:15:03;;;;;;;2.05;1.80;;;20.10;91.30;;;;;;5069764;28;20638;-80
2022/07/03 06:17:29;;;;;;;3.33;1.67;;;20.20;91.20;;;;;;5069110;28;20032;-81
2022/07/03 06:19:54;;;;;;;3.72;1.60;;;20.30;91.30;;;;;;5069798;28;20351;-79
2022/07/03 06:22:20;;;;;;;3.35;2.00;;;20.40;91.50;;;;;;5068731;28;20037;-78
2022/07/03 06:24:45;;;;;;;2.25;1.80;;;20.50;91.10;;;;;;5051568;28;20025;-82
2022/07/03 06:27:10;;;;;;;2.45;1.65;;;20.60;90.90;;;;;;5051531;28;20105;-82
2022/07/03 06:29:36;;;;;;;1.85;1.40;;;20.80;91.10;;;;;;5052320;28;20025;-78
2022/07/03 06:32:02;;;;;;;2.30;1.75;;;21.10;90.40;;;;;;5054257;28;20024;-80
2022/07/03 06:34:27;;;;;;;1.90;1.50;;;21.30;89.50;;;;;;5058224;28;20063;-79
2022/07/03 06:36:52;;;;;;;1.70;1.33;;;21.60;89.20;;;;;;5058644;28;20119;-79
2022/07/03 06:39:18;;;;;;;4.30;1.63;;;21.70;89.10;;;;;;5074929;28;20367;-83
2022/07/03 06:41:43;;;;;;;2.45;1.25;;;21.90;87.00;;;;;;5054746;28;20040;-79
2022/07/03 06:44:09;;;;;;;1.80;1.50;;;21.90;85.80;;;;;;5073180;28;20454;-81
2022/07/03 06:46:34;;;;;;;1.88;1.15;;;22.00;84.70;;;;;;5054571;28;20462;-81
2022/07/03 06:49:00;;;;;;;2.10;1.33;;;22.10;84.10;;;;;;5054801;28;20098;-83
2022/07/03 06:51:25;;;;;;;2.63;1.20;;;22.10;83.60;;;;;;5054570;28;20033;-80
2022/07/03 06:53:51;;;;;;;1.92;1.20;;;22.20;83.70;;;;;;5072620;28;20027;-80
2022/07/03 06:56:16;;;;;;;1.20;0.93;;;22.30;83.20;;;;;;5053914;28;20119;-81
2022/07/03 06:58:42;;;;;;;1.20;1.10;;;22.50;83.00;;;;;;5054572;28;20052;-80
2022/07/03 07:01:07;;;;;;;1.23;1.13;;;22.60;82.50;;;;;;5071747;28;20477;-81
2022/07/03 07:03:33;;;;;;;2.70;1.30;;;22.80;82.50;;;;;;5054725;28;20024;-81
2022/07/03 07:05:58;;;;;;;2.25;1.05;;;22.90;82.40;;;;;;5071911;28;20028;-80
2022/07/03 07:08:24;;;;;;;3.15;1.00;;;23.10;82.20;;;;;;5053713;28;20056;-80
2022/07/03 07:10:49;;;;;;;1.88;1.10;;;23.20;82.60;;;;;;5071569;28;20100;-83
2022/07/03 07:13:15;;;;;;;1.38;1.20;;;23.40;81.00;;;;;;5054090;28;20016;-81
2022/07/03 07:15:41;;;;;;;1.80;1.15;;;23.50;81.10;;;;;;5053480;28;20051;-82
2022/07/03 07:18:06;;;;;;;1.52;1.10;;;23.60;81.00;;;;;;5054204;28;20029;-79
2022/07/03 07:20:31;;;;;;;2.83;1.08;;;23.80;79.90;;;;;;5053834;28;20028;-79
2022/07/03 07:22:57;;;;;;;1.40;1.10;;;23.80;80.10;;;;;;5054392;28;20025;-80
2022/07/03 07:25:23;;;;;;;2.45;1.35;;;23.90;78.90;;;;;;5053999;28;20413;-79
2022/07/03 07:27:48;;;;;;;4.40;1.00;;;24.00;80.40;;;;;;5054333;28;20032;-83
2022/07/03 07:30:14;;;;;;;1.42;1.10;;;24.10;80.70;;;;;;5071966;28;20170;-81
2022/07/03 07:32:39;;;;;;;1.63;1.00;;;24.10;79.60;;;;;;5053507;28;20024;-79
2022/07/03 07:35:05;;;;;;;3.20;1.50;;;24.20;78.60;;;;;;5071678;28;20033;-80
2022/07/03 07:37:31;;;;;;;1.58;1.17;;;24.30;78.40;;;;;;5071663;28;20041;-80
2022/07/03 07:39:56;;;;;;;2.15;0.80;;;24.50;78.50;;;;;;5053650;28;20122;-79
2022/07/03 07:42:24;;;;;;;1.55;1.08;;;24.70;78.50;;;;;;5071463;28;20482;-78
2022/07/03 07:44:49;;;;;;;2.42;0.82;;;24.80;76.90;;;;;;5054391;28;20031;-81
2022/07/03 07:47:15;;;;;;;1.55;1.10;;;25.00;77.40;;;;;;5052971;28;20032;-80
2022/07/03 07:49:40;;;;;;;1.50;1.02;;;25.20;77.20;;;;;;5071767;28;20511;-80
2022/07/03 07:52:06;;;;;;;4.03;0.95;;;25.30;76.20;;;;;;5053459;28;20466;-80
2022/07/03 07:54:32;;;;;;;1.48;0.85;;;25.50;76.30;;;;;;5053341;28;20082;-79
2022/07/03 07:56:57;;;;;;;1.55;0.90;;;25.60;77.00;;;;;;5052866;28;20036;-81
2022/07/03 07:59:23;;;;;;;2.63;0.93;;;25.90;76.70;;;;;;5071291;28;20112;-83
2022/07/03 08:07:16;;;;;;;1.00;0.88;;;26.30;73.70;;;;;;5070906;28;20166;-83
2022/07/03 08:09:42;;;;;;;2.55;0.85;;;26.40;74.10;;;;;;5052728;28;20127;-85
2022/07/03 08:12:07;;;;;;;1.23;0.80;;;26.50;73.70;;;;;;5052935;28;20025;-79
2022/07/03 08:14:33;;;;;;;3.40;0.90;;;26.70;73.00;;;;;;5071115;28;20029;-78
2022/07/03 08:16:58;;;;;;;3.20;0.90;;;26.70;74.30;;;;;;5070872;28;20437;-79
2022/07/03 08:19:24;;;;;;;1.88;1.00;;;26.90;73.70;;;;;;5053363;28;20604;-80
2022/07/03 08:21:49;;;;;;;1.15;0.70;;;27.10;74.30;;;;;;5052538;28;20119;-80
2022/07/03 08:24:16;;;;;;;1.65;1.10;;;27.20;74.70;;;;;;5052871;28;20028;-79
2022/07/03 08:26:42;;;;;;;1.65;1.00;;;27.40;72.20;;;;;;5070563;28;20025;-81
2022/07/03 08:29:07;;;;;;;2.08;0.98;;;27.60;71.60;;;;;;5052757;28;20071;-79
2022/07/03 08:31:33;;;;;;;1.50;0.80;;;27.70;71.50;;;;;;5052310;28;20474;-79
2022/07/03 08:33:58;;;;;;;1.73;1.00;;;27.80;71.20;;;;;;5070932;28;20185;-80
2022/07/03 08:36:24;;;;;;;1.38;0.68;;;28.00;69.90;;;;;;5069985;28;20040;-79
2022/07/03 08:38:49;;;;;;;2.20;1.02;;;28.10;71.00;;;;;;5070447;28;20381;-83
2022/07/03 08:41:17;;;;;;;2.30;0.80;;;28.20;67.70;;;;;;5070435;28;20078;-85
2022/07/03 08:43:43;;;;;;;1.20;0.65;;;28.30;67.00;;;;;;5071078;28;20035;-79
2022/07/03 08:46:11;;;;;;;0.90;0.80;;;28.30;67.50;;;;;;5052114;28;20127;-80
2022/07/03 08:48:37;;;;;;;1.15;0.73;;;28.50;67.50;;;;;;5070411;28;20025;-79
2022/07/03 08:51:02;;;;;;;2.20;0.75;;;28.70;67.00;;;;;;5070526;28;20028;-82
2022/07/03 08:53:28;;;;;;;1.77;0.70;;;28.80;66.80;;;;;;5052452;28;20083;-82
2022/07/03 08:55:53;;;;;;;1.15;0.80;;;28.90;68.10;;;;;;5051475;28;20047;-79
2022/07/03 08:58:22;;;;;;;3.58;0.88;;;29.00;68.40;;;;;;5070470;28;20043;-81
2022/07/03 09:00:48;;;;;;;1.00;0.60;;;29.10;65.00;;;;;;5070467;28;20030;-80
2022/07/03 09:03:15;;;;;;;1.85;0.80;;;29.20;64.00;;;;;;5070763;28;20111;-82
2022/07/03 09:05:40;;;;;;;1.77;0.63;;;29.20;66.40;;;;;;5051599;28;20028;-82
2022/07/03 09:08:07;;;;;;;0.70;0.60;;;29.30;66.40;;;;;;5052742;28;20039;-80
2022/07/03 09:10:33;;;;;;;1.60;0.75;;;29.50;65.20;;;;;;5070232;28;20107;-80
2022/07/03 09:12:58;;;;;;;1.92;0.70;;;29.60;62.70;;;;;;5070998;28;20104;-80
2022/07/03 09:15:24;;;;;;;1.35;0.65;;;29.70;63.80;;;;;;5069983;28;20324;-83
2022/07/03 09:18:05;;;;;;;2.08;1.55;;;29.80;61.90;;;;;;5052655;28;20104;-86
2022/07/03 09:20:36;;;;;;;1.38;0.60;;;29.80;61.80;;;;;;5052030;28;20482;-81
2022/07/03 09:23:14;;;;;;;2.00;0.52;;;29.70;64.90;;;;;;5054442;28;20052;-80
2022/07/03 09:25:57;;;;;;;0.80;0.60;;;29.90;60.90;;;;;;5075819;28;20066;-79
2022/07/03 09:28:24;;;;;;;0.75;0.60;;;30.10;63.80;;;;;;5075069;28;20040;-81
2022/07/03 09:31:00;;;;;;;1.75;0.57;;;30.20;59.60;;;;;;5054977;28;20035;-79
2022/07/03 09:33:26;;;;;;;1.52;0.60;;;30.40;60.80;;;;;;5070494;28;20474;-80
2022/07/03 09:35:56;;;;;;;0.57;0.50;;;30.60;56.80;;;;;;5070538;28;20094;-79
2022/07/03 09:38:23;;;;;;;0.75;0.52;;;30.80;57.60;;;;;;5074225;28;20039;-78
2022/07/03 09:40:57;;;;;;;0.73;0.50;;;30.90;58.10;;;;;;5076450;28;20028;-79
2022/07/03 09:43:29;;;;;;;1.02;0.88;;;31.10;58.00;;;;;;5057703;28;20029;-80
2022/07/03 09:45:56;;;;;;;;;;;31.40;57.30;;;;;;5055626;28;20029;-79
2022/07/03 09:48:26;;;;;;;1.80;0.75;;;31.50;55.50;;;;;;5052390;28;20002;-83
2022/07/03 09:51:13;;;;;;;0.88;0.60;;;31.60;54.10;;;;;;5071780;28;20025;-80
2022/07/03 09:53:50;;;;;;;0.50;0.50;;;31.70;55.30;;;;;;5072075;28;20043;-80
2022/07/03 09:56:17;;;;;;;0.77;0.60;;;31.70;53.60;;;;;;5052663;28;20036;-79
2022/07/03 09:58:59;;;;;;;1.85;0.60;;;31.70;54.90;;;;;;5052521;28;20128;-79
2022/07/03 10:01:25;;;;;;;0.60;0.60;;;31.80;56.10;;;;;;5052307;28;20066;-79
2022/07/03 10:03:51;;;;;;;3.40;0.50;;;31.90;55.40;;;;;;5070049;28;20017;-85
2022/07/03 10:06:16;;;;;;;0.90;0.63;;;31.90;53.40;;;;;;5051432;28;20044;-83
2022/07/03 10:08:43;;;;;;;1.67;1.00;;;31.80;54.40;;;;;;5052755;28;20059;-79
2022/07/03 10:11:09;;;;;;;0.80;0.60;;;31.80;56.00;;;;;;5073542;28;20141;-80
2022/07/03 10:13:39;;;;;;;1.98;0.60;;;31.90;55.70;;;;;;5074064;28;20497;-80
2022/07/03 10:16:06;;;;;;;1.42;0.50;;;32.00;54.10;;;;;;5072962;28;20052;-79
2022/07/03 10:18:34;;;;;;;0.95;0.60;;;32.20;55.60;;;;;;5074026;28;20103;-84
2022/07/03 10:21:01;;;;;;;1.65;0.68;;;32.30;54.90;;;;;;5056125;28;20078;-81
2022/07/03 10:23:26;;;;;;;2.10;0.50;;;32.40;53.30;;;;;;5058593;28;20028;-81
2022/07/03 10:25:53;;;;;;;2.85;0.60;;;32.30;53.70;;;;;;5055087;28;20039;-79
2022/07/03 10:28:19;;;;;;;0.60;0.50;;;32.40;52.60;;;;;;5055518;28;20033;-81
2022/07/03 10:30:47;;;;;;;1.30;0.50;;;32.30;51.90;;;;;;5055137;28;20032;-79
2022/07/03 10:33:12;;;;;;;2.58;0.68;;;32.30;52.20;;;;;;5073247;28;20486;-80
2022/07/03 10:35:41;;;;;;;2.67;0.57;;;32.40;53.70;;;;;;5055022;28;20060;-79
2022/07/03 10:38:36;;;;;;;1.25;0.52;;;32.50;52.10;;;;;;5055153;28;20128;-79
2022/07/03 10:46:43;;;;;;;1.23;0.57;;;32.30;51.70;;;;;;5072661;28;20480;-79
2022/07/03 10:49:10;;;;;;;2.35;0.60;;;32.10;51.00;;;;;;5055923;28;20033;-79
2022/07/03 10:51:45;;;;;;;0.50;0.50;;;32.00;52.30;;;;;;5054430;28;20033;-79
2022/07/03 10:54:39;;;;;;;2.08;0.70;;;32.10;56.00;;;;;;5073487;28;20496;-85
2022/07/03 10:57:09;;;;;;;0.95;0.50;;;32.20;50.80;;;;;;5072813;28;20055;-79
2022/07/03 10:59:35;;;;;;;1.13;0.50;;;32.40;51.80;;;;;;5073295;28;20352;-80
2022/07/03 11:02:52;;;;;;;0.55;0.40;;;32.40;51.80;;;;;;5072735;28;20078;-85
2022/07/03 11:05:24;;;;;;;0.85;0.50;;;32.50;52.70;;;;;;5010250;28;20032;-79
2022/07/03 11:07:50;;;;;;;4.68;0.50;;;32.70;53.40;;;;;;5057244;28;20032;-82
2022/07/03 11:10:15;;;;;;;1.38;0.65;;;32.90;49.20;;;;;;5054002;28;20039;-80
2022/07/03 11:12:56;;;;;;;0.90;0.50;;;32.80;50.40;;;;;;5054260;28;20025;-79
2022/07/03 11:15:34;;;;;;;1.58;0.60;;;32.60;49.60;;;;;;5055047;28;20056;-83
2022/07/03 11:20:45;;;;;;;0.98;0.60;;;32.10;50.50;;;;;;5070557;28;20636;-79
2022/07/03 11:23:10;;;;;;;7.55;0.57;;;32.00;50.20;;;;;;5054509;28;20386;-84
2022/07/03 11:25:39;;;;;;;2.45;0.50;;;31.90;50.20;;;;;;5054188;28;20041;-78
2022/07/03 11:28:05;;;;;;;1.75;0.70;;;31.80;51.50;;;;;;5055301;28;20029;-79
2022/07/03 11:30:31;;;;;;;0.70;0.50;;;31.90;51.00;;;;;;5054775;28;20032;-79
2022/07/03 11:32:58;;;;;;;1.25;0.50;;;31.90;52.20;;;;;;5054959;28;20071;-79
2022/07/03 11:35:44;;;;;;;0.93;0.40;;;31.90;49.60;;;;;;5071789;28;20115;-80
2022/07/03 11:38:10;;;;;;;4.13;0.60;;;32.00;49.60;;;;;;5054392;28;20094;-80
2022/07/03 11:40:40;;;;;;;1.17;0.50;;;32.10;51.90;;;;;;5053832;28;20119;-87
2022/07/03 11:43:05;;;;;;;0.70;0.30;;;32.40;51.00;;;;;;5054368;28;20029;-79
2022/07/03 11:45:31;;;;;;;2.55;0.40;;;32.60;51.30;;;;;;5071676;28;20033;-79
2022/07/03 11:47:57;;;;;;;1.55;0.50;;;32.80;50.50;;;;;;5071946;28;20398;-80
2022/07/03 11:50:39;;;;;;;0.47;0.35;;;32.90;50.10;;;;;;5072162;28;20052;-80
2022/07/03 11:53:25;;;;;;;1.02;0.60;;;33.10;49.10;;;;;;5071972;28;20028;-80
2022/07/03 11:55:56;;;;;;;1.52;0.85;;;33.30;48.80;;;;;;5053235;28;20371;-80
2022/07/03 11:58:22;;;;;;;0.70;0.50;;;33.40;50.10;;;;;;5053740;28;20028;-83
2022/07/03 12:00:50;;;;;;;0.85;0.60;;;33.40;48.20;;;;;;5071677;28;20332;-80
2022/07/03 12:03:21;;;;;;;0.70;0.40;;;33.50;50.30;;;;;;5072263;28;20029;-83
2022/07/03 12:05:54;;;;;;;0.93;0.50;;;33.50;49.00;;;;;;5071221;28;20017;-84
2022/07/03 12:08:25;;;;;;;0.50;0.50;;;33.30;48.60;;;;;;5054106;28;20036;-87
2022/07/03 12:11:01;;;;;;;3.17;0.40;;;33.20;47.70;;;;;;5053547;28;20030;-85
2022/07/03 12:13:29;;;;;;;0.38;0.38;;;33.00;49.10;;;;;;5071514;28;20427;-79
2022/07/03 12:16:01;;;;;;;2.45;0.40;;;32.90;48.50;;;;;;5052916;28;20047;-82
2022/07/03 12:18:27;;;;;;;;;;;32.80;48.20;;;;;;5054195;28;20051;-79
2022/07/03 12:20:52;;;;;;;2.88;0.40;;;32.90;48.60;;;;;;5071418;28;20452;-83
2022/07/03 12:23:18;;;;;;;1.65;0.40;;;33.10;48.20;;;;;;5053003;28;20032;-80
2022/07/03 12:25:43;;;;;;;0.88;0.38;;;33.30;49.20;;;;;;5070332;28;20401;-80
2022/07/03 12:28:10;;;;;;;3.47;0.50;;;33.60;48.60;;;;;;5053362;28;20110;-83
2022/07/03 12:30:37;;;;;;;1.13;0.50;;;33.80;47.60;;;;;;5052472;28;20115;-80
2022/07/03 12:33:04;;;;;;;1.05;0.50;;;33.80;48.60;;;;;;5086143;28;20451;-79
2022/07/03 12:35:30;;;;;;;1.75;0.40;;;33.80;48.30;;;;;;5052547;28;20123;-80
2022/07/03 12:37:55;;;;;;;0.57;0.50;;;33.70;48.80;;;;;;5071145;28;20462;-82
2022/07/03 12:40:21;;;;;;;1.52;0.40;;;33.70;46.40;;;;;;5051771;28;20093;-81
2022/07/03 12:42:55;;;;;;;4.13;0.40;;;33.60;46.90;;;;;;5044393;28;20039;-79
2022/07/03 12:45:25;;;;;;;0.60;0.43;;;33.60;47.90;;;;;;5042086;28;20101;-83
2022/07/03 12:48:17;;;;;;;2.03;0.60;;;33.50;48.10;;;;;;5056575;28;20054;-81
2022/07/03 12:50:47;;;;;;;0.80;0.40;;;33.50;49.50;;;;;;5050214;28;20086;-82
2022/07/03 12:53:26;;;;;;;0.90;0.40;;;33.50;48.30;;;;;;5056165;28;20040;-84
2022/07/03 12:55:52;;;;;;;0.85;0.30;;;33.60;46.10;;;;;;5068894;28;20041;-82
2022/07/03 13:01:30;;;;;;;2.72;0.40;;;33.70;46.50;;;;;;5055406;28;20039;-85
2022/07/03 13:03:56;;;;;;;1.08;0.45;;;33.80;45.80;;;;;;5056479;28;20153;-85
2022/07/03 13:06:23;;;;;;;0.88;0.47;;;33.80;45.80;;;;;;5068293;28;20127;-79
2022/07/03 13:08:50;;;;;;;0.95;0.38;;;33.70;45.60;;;;;;5060022;28;20822;-82
2022/07/03 13:11:32;;;;;;;0.63;0.30;;;33.60;46.50;;;;;;5044617;28;20036;-83
2022/07/03 13:14:07;;;;;;;0.45;0.40;;;33.80;47.60;;;;;;5059084;28;20028;-83
2022/07/03 13:16:56;;;;;;;1.05;0.40;;;34.00;46.80;;;;;;5042554;28;20089;-86
2022/07/03 13:19:27;;;;;;;0.63;0.43;;;34.30;47.50;;;;;;5048836;28;20040;-82